Time;durP1;ratioP1;P1;durP2;ratioP2;P2;SDS_P1;SDS_P2;PMS_P1;PMS_P2;Temp;Humidity;BMP_temperature;BMP_pressure;BME280_temperature;BME280_humidity;BME280_pressure;Samples;Min_cycle;Max_cycle;Signal;HPM_P1;HPM_P2
2023/03/30 00:01:43;;;;;;;3.63;1.90;;;;;;;15.13;55.38;99446.66;5074305;28;20457;-59
2023/03/30 00:04:12;;;;;;;6.25;1.90;;;;;;;15.10;54.50;99444.59;5069555;28;20055;-59
2023/03/30 00:06:41;;;;;;;4.78;1.60;;;;;;;15.15;55.26;99441.50;5073398;28;20059;-59
2023/03/30 00:09:09;;;;;;;4.43;1.85;;;;;;;15.13;54.88;99446.66;5065530;28;20059;-59
2023/03/30 00:11:36;;;;;;;6.15;1.83;;;;;;;15.15;54.98;99442.28;5072268;28;20493;-59
2023/03/30 00:14:03;;;;;;;3.28;1.50;;;;;;;15.13;55.21;99446.66;5073838;28;20063;-60
2023/03/30 00:16:31;;;;;;;5.82;1.77;;;;;;;15.11;54.66;99443.41;5074076;28;20689;-59
2023/03/30 00:18:59;;;;;;;3.40;1.63;;;;;;;15.11;53.68;99437.81;5071479;28;20485;-59
2023/03/30 00:21:28;;;;;;;2.63;1.50;;;;;;;15.13;54.53;99430.63;5073835;28;20493;-59
2023/03/30 00:23:55;;;;;;;6.33;1.93;;;;;;;15.13;54.51;99430.63;5073447;28;20052;-59
2023/03/30 00:26:22;;;;;;;2.40;1.60;;;;;;;15.08;53.40;99421.72;5073220;28;20517;-59
2023/03/30 00:28:50;;;;;;;3.58;1.73;;;;;;;15.06;54.48;99415.69;5072361;28;20068;-59
2023/03/30 00:31:17;;;;;;;2.80;1.67;;;;;;;15.11;54.10;99410.56;5073581;28;20481;-60
2023/03/30 00:33:45;;;;;;;4.00;1.70;;;;;;;15.15;53.12;99417.06;5071057;28;20044;-59
2023/03/30 00:36:12;;;;;;;3.45;1.50;;;;;;;15.17;52.42;99425.91;5073861;28;20060;-60
2023/03/30 00:38:41;;;;;;;4.97;1.95;;;;;;;15.28;52.36;99419.69;5072469;28;20052;-59
2023/03/30 00:41:08;;;;;;;3.33;1.50;;;;;;;15.35;51.91;99422.63;5073038;28;20079;-59
2023/03/30 00:43:35;;;;;;;4.10;1.80;;;;;;;15.41;52.59;99405.13;5073289;28;20052;-59
2023/03/30 00:46:02;;;;;;;4.40;1.67;;;;;;;15.43;51.96;99399.13;5073789;28;20048;-59
2023/03/30 00:48:33;;;;;;;4.15;1.67;;;;;;;15.45;51.38;99395.94;5066996;28;20490;-59
2023/03/30 00:51:06;;;;;;;4.97;1.73;;;;;;;15.52;51.92;99399.69;5053567;28;20056;-59
2023/03/30 00:53:36;;;;;;;4.30;1.85;;;;;;;15.54;51.20;99388.09;5053028;28;20530;-59
2023/03/30 00:56:07;;;;;;;3.65;2.20;;;;;;;15.58;51.46;99386.16;5057999;28;20079;-59
2023/03/30 00:58:35;;;;;;;4.47;1.85;;;;;;;15.64;51.44;99393.06;5072197;28;20401;-58
2023/03/30 01:01:05;;;;;;;3.88;1.67;;;;;;;15.64;50.97;99379.03;5072892;28;20044;-59
2023/03/30 01:03:34;;;;;;;;;;;;;;;15.60;51.10;99379.00;5071002;28;20123;-59
2023/03/30 01:06:06;;;;;;;4.78;1.77;;;;;;;15.65;50.83;99377.88;5070924;28;19920;-59
2023/03/30 01:08:35;;;;;;;3.40;1.63;;;;;;;15.64;50.57;99373.41;5072994;28;20067;-59
2023/03/30 01:11:03;;;;;;;4.28;2.05;;;;;;;15.57;50.46;99365.69;5072935;28;20489;-59
2023/03/30 01:13:36;;;;;;;3.92;1.88;;;;;;;15.61;50.28;99362.97;5072351;28;20056;-59
2023/03/30 01:16:14;;;;;;;4.45;1.77;;;;;;;15.54;51.03;99355.22;5070512;28;20052;-59
2023/03/30 01:18:53;;;;;;;5.43;1.48;;;;;;;15.56;51.39;99352.03;5070452;28;20078;-59
2023/03/30 01:22:15;;;;;;;5.07;1.70;;;;;;;15.54;50.66;99355.22;5073271;28;20060;-59
2023/03/30 01:25:23;;;;;;;4.95;1.80;;;;;;;15.52;51.25;99343.56;5071749;28;20389;-60
2023/03/30 01:28:13;;;;;;;5.68;1.80;;;;;;;15.46;51.92;99347.06;5070279;28;20535;-60
2023/03/30 01:31:06;;;;;;;4.20;1.73;;;;;;;15.43;50.41;99343.84;5072794;28;20053;-61
2023/03/30 01:34:09;;;;;;;5.18;1.90;;;;;;;15.47;51.06;99345.88;5067556;28;20489;-59
2023/03/30 01:37:05;;;;;;;5.53;1.50;;;;;;;15.51;50.42;99327.09;5039113;28;20052;-61
2023/03/30 01:39:43;;;;;;;4.85;1.40;;;;;;;15.54;49.90;99331.94;5071753;28;20055;-60
2023/03/30 01:42:20;;;;;;;5.30;1.58;;;;;;;15.58;50.60;99333.66;5072571;28;20060;-60
2023/03/30 01:44:55;;;;;;;5.82;1.55;;;;;;;15.70;49.66;99334.63;5071091;28;20045;-60
2023/03/30 01:47:28;;;;;;;3.75;1.60;;;;;;;15.78;49.07;99340.00;5072658;28;20052;-60
2023/03/30 01:50:01;;;;;;;6.32;1.95;;;;;;;15.87;49.15;99336.91;5069713;28;20075;-60
2023/03/30 01:52:37;;;;;;;5.00;1.52;;;;;;;15.91;48.74;99339.78;5072689;28;20048;-60
2023/03/30 01:55:13;;;;;;;4.45;1.70;;;;;;;15.98;49.11;99329.47;5071777;28;20397;-60
2023/03/30 01:57:45;;;;;;;7.07;1.48;;;;;;;16.11;49.07;99326.44;5072548;28;20060;-60
2023/03/30 02:00:16;;;;;;;3.40;1.33;;;;;;;16.16;48.36;99329.72;5072523;28;20068;-60
2023/03/30 02:02:48;;;;;;;4.82;1.33;;;;;;;16.28;48.38;99328.69;5072405;28;20064;-60
2023/03/30 02:05:19;;;;;;;5.45;1.73;;;;;;;16.20;48.02;99341.81;5068552;28;20045;-60
2023/03/30 02:07:51;;;;;;;3.47;1.40;;;;;;;16.19;47.96;99345.81;5072147;28;20052;-60
2023/03/30 02:10:28;;;;;;;5.63;1.83;;;;;;;16.23;48.08;99343.88;5072753;28;20366;-60
2023/03/30 02:12:59;;;;;;;6.10;1.60;;;;;;;16.31;48.29;99336.34;5072102;28;20056;-61
2023/03/30 02:15:32;;;;;;;3.85;1.58;;;;;;;16.29;47.98;99337.91;5069848;28;20048;-60
2023/03/30 02:18:03;;;;;;;5.13;1.27;;;;;;;16.35;48.15;99325.16;5072394;28;20048;-60
2023/03/30 02:20:32;;;;;;;5.00;1.60;;;;;;;16.41;47.11;99341.28;5070414;28;20060;-60
2023/03/30 02:23:04;;;;;;;5.25;1.88;;;;;;;16.35;47.32;99337.19;5072272;28;20512;-61
2023/03/30 02:25:35;;;;;;;4.72;1.60;;;;;;;16.33;48.08;99338.78;5070683;28;20048;-60
2023/03/30 02:28:02;;;;;;;4.00;1.80;;;;;;;16.33;47.78;99322.72;5071913;28;20418;-60
2023/03/30 02:30:32;;;;;;;3.67;1.50;;;;;;;16.37;47.44;99340.44;5072226;28;20048;-60
2023/03/30 02:33:02;;;;;;;3.85;1.40;;;;;;;16.47;46.98;99327.72;5071912;28;20048;-60
2023/03/30 02:35:44;;;;;;;2.90;1.60;;;;;;;16.43;47.38;99321.25;5071051;28;20517;-60
2023/03/30 02:38:35;;;;;;;4.45;1.50;;;;;;;16.50;46.88;99310.06;5072256;28;20057;-60
2023/03/30 02:41:18;;;;;;;4.03;1.52;;;;;;;16.58;46.96;99305.34;5072438;28;20064;-59
2023/03/30 02:43:53;;;;;;;7.35;1.90;;;;;;;16.59;47.02;99299.34;5071010;28;20053;-60
2023/03/30 02:46:45;;;;;;;4.38;1.92;;;;;;;16.55;47.17;99301.31;5072246;28;20056;-59
2023/03/30 02:49:17;;;;;;;7.00;1.83;;;;;;;16.62;47.20;99289.34;5069363;28;20431;-60
2023/03/30 02:51:49;;;;;;;7.03;1.92;;;;;;;16.60;47.11;99292.53;5075143;28;20132;-59
2023/03/30 02:54:29;;;;;;;5.80;1.85;;;;;;;16.61;47.56;99288.53;5074481;28;20055;-60
2023/03/30 02:57:07;;;;;;;6.20;1.50;;;;;;;16.42;47.01;99269.84;5075630;28;20385;-60
2023/03/30 02:59:41;;;;;;;3.83;1.75;;;;;;;16.47;47.29;99260.25;5075905;28;20052;-59
2023/03/30 03:02:14;;;;;;;7.43;2.15;;;;;;;16.44;47.96;99267.47;5075498;28;20059;-59
2023/03/30 03:04:42;;;;;;;4.18;1.55;;;;;;;16.43;47.98;99259.41;5071223;28;20056;-60
2023/03/30 03:07:10;;;;;;;4.40;1.70;;;;;;;16.44;48.12;99244.97;5074991;28;20053;-60
2023/03/30 03:09:38;;;;;;;4.55;1.77;;;;;;;16.46;47.60;99247.38;5075378;28;20056;-59
2023/03/30 03:12:09;;;;;;;5.28;1.75;;;;;;;16.51;47.57;99244.25;5075301;28;20049;-59
2023/03/30 03:14:38;;;;;;;5.00;1.80;;;;;;;16.53;47.77;99229.81;5072467;28;20044;-60
2023/03/30 03:17:05;;;;;;;4.18;1.58;;;;;;;16.49;48.18;99237.41;5074867;28;20067;-59
2023/03/30 03:19:32;;;;;;;4.63;1.67;;;;;;;16.51;47.87;99230.19;5073650;28;20056;-59
2023/03/30 03:22:00;;;;;;;4.70;1.60;;;;;;;16.50;47.84;99245.41;5075174;28;20052;-59
2023/03/30 03:24:27;;;;;;;6.72;1.98;;;;;;;16.50;47.42;99253.84;5074242;28;20045;-59
2023/03/30 03:26:59;;;;;;;4.85;2.08;;;;;;;16.54;47.79;99262.34;5074743;28;20413;-59
2023/03/30 03:29:28;;;;;;;3.85;1.80;;;;;;;16.57;47.92;99248.31;5074790;28;20056;-59
2023/03/30 03:31:55;;;;;;;4.95;1.60;;;;;;;16.53;47.95;99247.47;5074634;28;20059;-59
2023/03/30 03:34:25;;;;;;;4.32;1.60;;;;;;;16.54;47.75;99246.28;5071924;28;20048;-60
2023/03/30 03:36:53;;;;;;;;;;;;;;;16.58;47.53;99238.69;5075340;28;20075;-59
2023/03/30 03:39:21;;;;;;;4.53;1.73;;;;;;;16.48;48.08;99244.19;5074817;28;20349;-59
2023/03/30 03:41:48;;;;;;;4.53;1.70;;;;;;;16.48;47.92;99244.19;5074665;28;20048;-58
2023/03/30 03:44:15;;;;;;;7.15;2.13;;;;;;;16.50;48.06;99253.84;5073949;28;20060;-58
2023/03/30 03:46:44;;;;;;;3.75;1.80;;;;;;;16.48;47.71;99256.25;5074122;28;20478;-58
2023/03/30 03:49:11;;;;;;;4.75;1.63;;;;;;;16.57;48.27;99259.56;5072398;28;20163;-59
2023/03/30 03:51:39;;;;;;;4.35;1.90;;;;;;;16.53;47.97;99244.66;5074203;28;20413;-58
2023/03/30 03:54:06;;;;;;;5.05;2.05;;;;;;;16.56;48.30;99246.69;5073266;28;20052;-59
2023/03/30 03:56:34;;;;;;;5.80;1.73;;;;;;;16.54;48.31;99243.47;5074484;28;20048;-59
2023/03/30 03:59:02;;;;;;;7.50;2.30;;;;;;;16.55;48.12;99252.72;5074365;28;20053;-58
2023/03/30 04:01:29;;;;;;;4.90;1.77;;;;;;;16.54;48.36;99237.03;5073248;28;20055;-59
2023/03/30 04:03:58;;;;;;;5.13;1.85;;;;;;;16.56;48.47;99229.81;5070292;28;20075;-59
2023/03/30 04:06:26;;;;;;;6.15;2.00;;;;;;;16.53;48.54;99238.25;5072981;28;20048;-58
2023/03/30 04:08:53;;;;;;;7.07;1.98;;;;;;;16.54;48.44;99234.22;5073833;28;20067;-59
2023/03/30 04:11:21;;;;;;;5.70;2.13;;;;;;;16.51;48.87;99229.38;5073547;28;20052;-59
2023/03/30 04:13:48;;;;;;;6.25;2.22;;;;;;;16.52;48.77;99222.56;5071938;28;20048;-58
2023/03/30 04:16:15;;;;;;;4.97;2.00;;;;;;;16.50;48.71;99220.13;5074046;28;20059;-58
2023/03/30 04:18:45;;;;;;;4.22;1.60;;;;;;;16.52;48.69;99234.59;5071774;28;20044;-59
2023/03/30 04:21:16;;;;;;;4.20;1.80;;;;;;;16.56;48.66;99241.06;5073938;28;20052;-59
2023/03/30 04:23:47;;;;;;;4.00;1.83;;;;;;;16.58;48.25;99237.88;5072817;28;20052;-58
2023/03/30 04:26:16;;;;;;;3.83;1.50;;;;;;;16.45;49.19;99245.78;5073841;28;20425;-58
2023/03/30 04:28:45;;;;;;;5.13;1.65;;;;;;;16.53;49.05;99247.47;5073616;28;20056;-59
2023/03/30 04:31:12;;;;;;;8.23;2.10;;;;;;;16.57;47.80;99236.28;5071512;28;20075;-59
2023/03/30 04:33:44;;;;;;;3.67;1.80;;;;;;;16.64;48.22;99219.47;5071150;28;20059;-58
2023/03/30 04:36:16;;;;;;;8.10;1.88;;;;;;;16.62;47.76;99214.22;5073468;28;20056;-58
2023/03/30 04:38:58;;;;;;;6.15;1.80;;;;;;;16.70;48.62;99223.56;5073203;28;20052;-58
2023/03/30 04:41:32;;;;;;;8.05;1.95;;;;;;;16.80;48.15;99208.00;5071917;28;20060;-58
2023/03/30 04:44:02;;;;;;;6.65;1.60;;;;;;;16.80;48.30;99194.75;5073502;28;20059;-58
2023/03/30 04:46:29;;;;;;;5.28;2.03;;;;;;;16.83;48.46;99198.78;5073078;28;20048;-58
2023/03/30 04:48:56;;;;;;;8.15;1.90;;;;;;;16.76;48.72;99188.28;5068979;28;20052;-58
2023/03/30 04:51:24;;;;;;;6.50;1.77;;;;;;;16.80;48.45;99191.13;5071507;28;20063;-59
2023/03/30 04:53:56;;;;;;;6.72;2.40;;;;;;;16.81;48.20;99189.94;5073162;28;20054;-58
2023/03/30 04:56:23;;;;;;;11.23;2.90;;;;;;;16.75;48.32;99183.81;5072853;28;20044;-58
2023/03/30 04:58:50;;;;;;;6.28;1.83;;;;;;;16.77;48.87;99194.69;5072262;28;20496;-59
2023/03/30 05:01:18;;;;;;;5.22;1.92;;;;;;;16.78;48.48;99185.88;5072313;28;20048;-59
2023/03/30 05:03:45;;;;;;;5.72;2.10;;;;;;;16.74;48.65;99184.22;5068039;28;20075;-59
2023/03/30 05:06:12;;;;;;;7.15;1.75;;;;;;;16.76;48.62;99191.06;5072707;28;20044;-58
2023/03/30 05:08:40;;;;;;;4.47;1.88;;;;;;;16.66;48.99;99190.97;5072442;28;20498;-58
2023/03/30 05:11:08;;;;;;;4.32;2.00;;;;;;;16.61;49.41;99195.75;5072658;28;20507;-59
2023/03/30 05:13:36;;;;;;;8.05;2.50;;;;;;;16.58;49.24;99215.41;5071814;28;20429;-59
2023/03/30 05:16:03;;;;;;;5.10;2.10;;;;;;;16.57;49.68;99216.59;5069560;28;20044;-59
2023/03/30 05:18:30;;;;;;;4.65;1.90;;;;;;;16.57;49.82;99210.97;5070685;28;20496;-59
2023/03/30 05:20:58;;;;;;;5.75;2.10;;;;;;;16.46;50.25;99207.22;5072542;28;20053;-59
2023/03/30 05:23:26;;;;;;;8.35;2.17;;;;;;;16.52;50.03;99211.31;5072591;28;20052;-59
2023/03/30 05:25:54;;;;;;;4.65;1.85;;;;;;;16.45;50.42;99217.69;5070409;28;20053;-59
2023/03/30 05:28:23;;;;;;;6.95;1.92;;;;;;;16.50;50.00;99208.88;5072391;28;20052;-59
2023/03/30 05:30:53;;;;;;;7.60;2.22;;;;;;;16.48;50.06;99207.66;5072726;28;20052;-59
2023/03/30 05:33:21;;;;;;;5.93;2.10;;;;;;;16.49;50.63;99189.63;5070368;28;20486;-58
2023/03/30 05:35:49;;;;;;;5.68;2.42;;;;;;;16.50;50.83;99200.44;5072122;28;20048;-59
2023/03/30 05:38:16;;;;;;;6.18;2.40;;;;;;;16.53;50.42;99202.50;5072115;28;20216;-59
2023/03/30 05:40:44;;;;;;;4.65;1.67;;;;;;;16.50;50.56;99206.06;5072282;28;20059;-59
2023/03/30 05:43:12;;;;;;;7.97;2.20;;;;;;;16.50;50.21;99214.50;5071137;28;20061;-59
2023/03/30 05:45:42;;;;;;;3.80;2.08;;;;;;;16.54;49.84;99220.97;5072681;28;20139;-58
2023/03/30 05:48:10;;;;;;;5.47;2.00;;;;;;;16.56;50.31;99232.63;5072307;28;20505;-59
2023/03/30 05:50:37;;;;;;;7.20;2.20;;;;;;;16.50;50.11;99236.19;5070460;28;20071;-59
2023/03/30 05:53:04;;;;;;;4.07;1.67;;;;;;;16.43;50.86;99231.31;5068056;28;20053;-59
2023/03/30 05:55:31;;;;;;;6.30;1.77;;;;;;;16.53;50.43;99229.81;5052372;28;20393;-59
2023/03/30 05:57:59;;;;;;;4.57;1.52;;;;;;;16.48;49.81;99236.56;5052138;28;20045;-59
2023/03/30 06:00:27;;;;;;;3.88;2.10;;;;;;;16.59;50.10;99231.88;5051568;28;20502;-59
2023/03/30 06:02:56;;;;;;;7.38;1.92;;;;;;;16.55;50.47;99233.84;5055075;28;20516;-59
2023/03/30 06:05:24;;;;;;;3.47;1.60;;;;;;;16.62;50.03;99239.53;5071036;28;20410;-59
2023/03/30 06:07:51;;;;;;;4.57;1.90;;;;;;;16.61;49.54;99243.56;5072120;28;20049;-59
2023/03/30 06:10:21;;;;;;;4.32;1.90;;;;;;;16.68;50.15;99247.63;5072246;28;20061;-59
2023/03/30 06:12:48;;;;;;;3.92;1.70;;;;;;;16.62;49.97;99245.16;5070689;28;20057;-59
2023/03/30 06:15:16;;;;;;;4.85;1.60;;;;;;;16.70;49.88;99240.44;5072109;28;20500;-59
2023/03/30 06:17:43;;;;;;;5.07;1.80;;;;;;;16.76;49.76;99238.09;5070783;28;20053;-59
2023/03/30 06:20:12;;;;;;;13.98;1.70;;;;;;;16.78;49.83;99244.13;5071347;28;20051;-59
2023/03/30 06:22:45;;;;;;;5.82;1.80;;;;;;;16.78;49.65;99236.50;5070743;28;20056;-59
2023/03/30 06:25:13;;;;;;;4.72;1.58;;;;;;;16.80;49.14;99245.38;5073097;28;20478;-59
2023/03/30 06:27:41;;;;;;;5.55;1.70;;;;;;;16.81;49.02;99246.97;5075669;28;20048;-59
2023/03/30 06:30:09;;;;;;;4.15;1.30;;;;;;;16.83;49.17;99232.53;5076027;28;20397;-59
2023/03/30 06:32:36;;;;;;;3.83;1.77;;;;;;;16.75;48.99;99247.69;5073160;28;20152;-59
2023/03/30 06:35:04;;;;;;;6.13;1.42;;;;;;;16.91;49.46;99236.25;5075038;28;20052;-59
2023/03/30 06:37:35;;;;;;;2.42;1.33;;;;;;;16.87;48.71;99232.59;5074925;28;20049;-58
2023/03/30 06:40:06;;;;;;;4.53;1.65;;;;;;;16.84;48.29;99229.34;5074669;28;20060;-58
2023/03/30 06:42:36;;;;;;;5.88;1.40;;;;;;;17.02;48.66;99225.88;5071091;28;20059;-59
2023/03/30 06:45:05;;;;;;;4.90;1.50;;;;;;;17.00;48.34;99226.25;5075058;28;20059;-59
2023/03/30 06:47:32;;;;;;;3.95;1.77;;;;;;;17.14;48.22;99224.78;5073886;28;20489;-59
2023/03/30 06:50:00;;;;;;;3.63;1.80;;;;;;;17.11;47.85;99220.72;5071970;28;20493;-59
2023/03/30 06:52:27;;;;;;;3.17;1.60;;;;;;;17.14;48.26;99217.16;5074807;28;20059;-59
2023/03/30 06:54:56;;;;;;;4.35;1.63;;;;;;;17.21;48.20;99224.84;5074635;28;20057;-59
2023/03/30 06:57:23;;;;;;;8.45;1.98;;;;;;;17.23;48.31;99222.44;5074993;28;20049;-59
2023/03/30 06:59:50;;;;;;;4.88;1.90;;;;;;;17.42;48.06;99216.53;5074238;28;20401;-59
2023/03/30 07:02:18;;;;;;;4.03;1.70;;;;;;;17.64;48.01;99217.50;5075212;28;20063;-59
2023/03/30 07:04:46;;;;;;;7.85;2.10;;;;;;;17.78;47.78;99230.84;5066438;28;20052;-59
2023/03/30 07:07:14;;;;;;;5.57;1.80;;;;;;;17.65;48.38;99224.72;5073928;28;20059;-59
2023/03/30 07:09:41;;;;;;;7.53;2.00;;;;;;;17.82;47.70;99253.41;5072432;28;20076;-58
2023/03/30 07:12:10;;;;;;;7.15;2.10;;;;;;;18.01;47.35;99222.13;5067955;28;20060;-58
2023/03/30 07:14:37;;;;;;;5.00;2.37;;;;;;;18.24;46.65;99240.75;5054822;28;20120;-58
2023/03/30 07:17:06;;;;;;;5.47;2.38;;;;;;;18.84;46.21;99228.88;5054684;28;20056;-58
2023/03/30 07:19:33;;;;;;;8.38;2.28;;;;;;;19.71;44.00;99235.31;5063244;28;20461;-58
2023/03/30 07:22:00;;;;;;;7.63;2.60;;;;;;;19.98;43.62;99232.81;5060052;28;20056;-58
2023/03/30 07:24:29;;;;;;;7.45;2.45;;;;;;;21.61;40.95;99227.78;5071265;28;20505;-58
2023/03/30 07:26:57;;;;;;;7.57;2.50;;;;;;;22.40;38.62;99226.88;5063308;28;20052;-58
2023/03/30 07:29:27;;;;;;;5.18;2.25;;;;;;;21.93;39.44;99233.09;5065556;28;20057;-58
2023/03/30 07:31:55;;;;;;;5.60;2.20;;;;;;;21.28;40.31;99224.41;5074056;28;20469;-58
2023/03/30 07:34:22;;;;;;;5.78;2.10;;;;;;;20.72;41.02;99240.59;5059005;28;20045;-58
2023/03/30 07:36:49;;;;;;;7.50;2.40;;;;;;;20.46;41.14;99237.06;5067261;28;20052;-57
2023/03/30 07:39:17;;;;;;;7.32;3.08;;;;;;;20.24;41.49;99244.81;5062945;28;20517;-57
2023/03/30 07:41:44;;;;;;;7.40;1.90;;;;;;;20.47;41.06;99258.47;5064727;28;20048;-58
2023/03/30 07:44:11;;;;;;;5.15;1.83;;;;;;;20.08;41.15;99251.75;5060947;28;20056;-58
2023/03/30 07:46:41;;;;;;;6.18;1.80;;;;;;;19.73;42.01;99249.03;5072212;28;20064;-58
2023/03/30 07:49:08;;;;;;;7.15;2.00;;;;;;;19.64;42.84;99247.41;5068853;28;20410;-58
2023/03/30 07:51:35;;;;;;;6.13;2.13;;;;;;;19.34;43.19;99245.03;5064874;28;20072;-58
2023/03/30 07:54:03;;;;;;;5.97;2.15;;;;;;;19.22;43.70;99246.22;5067044;28;20059;-58
2023/03/30 07:56:32;;;;;;;4.78;1.55;;;;;;;19.22;43.31;99242.59;5070503;28;20510;-58
2023/03/30 07:58:59;;;;;;;5.70;1.77;;;;;;;19.29;43.81;99244.63;5064826;28;20052;-58
2023/03/30 08:01:26;;;;;;;4.22;1.50;;;;;;;18.92;43.97;99257.06;5070633;28;20409;-58
2023/03/30 08:03:55;;;;;;;3.72;1.50;;;;;;;18.60;44.78;99249.34;5066781;28;20405;-58
2023/03/30 08:06:22;;;;;;;4.57;1.90;;;;;;;18.32;48.33;99264.16;5066074;28;20048;-58
2023/03/30 08:08:49;;;;;;;5.72;2.20;;;;;;;17.96;49.36;99269.63;5063288;28;20060;-58
2023/03/30 08:11:17;;;;;;;6.13;1.85;;;;;;;17.60;50.38;99260.91;5073548;28;20052;-58
2023/03/30 08:13:44;;;;;;;6.03;2.00;;;;;;;17.42;50.58;99274.84;5056494;28;20418;-57
2023/03/30 08:16:12;;;;;;;5.35;2.15;;;;;;;17.16;51.31;99267.41;5060044;28;20044;-58
2023/03/30 08:18:40;;;;;;;3.47;1.80;;;;;;;17.04;51.82;99283.38;5067554;28;20068;-57
2023/03/30 08:21:09;;;;;;;4.53;2.00;;;;;;;17.14;51.10;99301.56;5071632;28;20064;-58
2023/03/30 08:23:38;;;;;;;2.63;1.50;;;;;;;17.28;51.17;99306.50;5073917;28;20059;-57
2023/03/30 08:26:05;;;;;;;3.33;1.60;;;;;;;17.25;52.46;99288.38;5070981;28;20485;-58
2023/03/30 08:28:33;;;;;;;4.07;1.63;;;;;;;17.16;53.53;99295.56;5073188;28;20055;-58
2023/03/30 08:31:04;;;;;;;5.13;1.77;;;;;;;16.95;54.03;99282.91;5073595;28;20509;-58
2023/03/30 08:33:31;;;;;;;5.13;1.80;;;;;;;16.85;54.56;99286.41;5073436;28;20067;-58
2023/03/30 08:35:59;;;;;;;7.57;2.30;;;;;;;16.60;57.67;99306.59;5068402;28;20072;-58
2023/03/30 08:38:32;;;;;;;6.20;2.10;;;;;;;16.39;60.68;99309.16;5066535;28;20048;-58
2023/03/30 08:41:00;;;;;;;3.65;1.73;;;;;;;16.09;57.80;99318.38;5065760;28;20048;-58
2023/03/30 08:43:41;;;;;;;6.47;1.80;;;;;;;15.86;57.13;99317.66;5065639;28;20054;-59
2023/03/30 08:46:13;;;;;;;5.63;2.05;;;;;;;15.71;57.43;99323.03;5066282;28;20052;-58
2023/03/30 08:48:41;;;;;;;5.50;1.73;;;;;;;15.43;58.35;99346.63;5067876;28;20060;-58
2023/03/30 08:51:18;;;;;;;5.80;2.27;;;;;;;15.05;60.32;99341.13;5062246;28;20045;-58
2023/03/30 08:53:49;;;;;;;5.28;1.80;;;;;;;14.57;64.26;99345.03;5064210;28;20060;-58
2023/03/30 08:56:20;;;;;;;5.30;2.17;;;;;;;14.38;66.21;99340.22;5060073;28;20044;-59
2023/03/30 08:58:55;;;;;;;6.53;2.42;;;;;;;14.29;66.82;99341.59;5070113;28;20438;-59
2023/03/30 09:01:29;;;;;;;5.70;1.95;;;;;;;14.28;66.37;99352.00;5069134;28;20048;-60
2023/03/30 09:04:18;;;;;;;6.10;1.73;;;;;;;14.16;67.09;99350.13;5064848;28;20055;-59
2023/03/30 09:06:50;;;;;;;5.13;1.55;;;;;;;14.14;67.42;99344.09;5065755;28;20056;-59
2023/03/30 09:09:21;;;;;;;7.18;1.60;;;;;;;14.26;65.93;99359.94;5060256;28;20047;-59
2023/03/30 09:11:53;;;;;;;5.25;1.83;;;;;;;14.36;66.49;99350.13;5068535;28;20059;-59
2023/03/30 09:14:29;;;;;;;7.85;2.30;;;;;;;14.57;65.93;99350.66;5060348;28;20052;-59
2023/03/30 09:17:03;;;;;;;7.50;1.88;;;;;;;14.82;64.09;99353.09;5059315;28;20501;-59
2023/03/30 09:19:35;;;;;;;5.28;1.80;;;;;;;15.14;63.18;99364.13;5063408;28;20059;-58
2023/03/30 09:22:05;;;;;;;6.03;1.80;;;;;;;15.37;63.60;99350.94;5062313;28;20052;-59
2023/03/30 09:24:34;;;;;;;4.85;1.58;;;;;;;15.88;61.66;99354.59;5056067;28;20048;-59
2023/03/30 09:27:09;;;;;;;7.45;1.90;;;;;;;16.26;60.07;99355.53;5065455;28;20056;-58
2023/03/30 09:29:43;;;;;;;4.32;1.98;;;;;;;16.59;58.93;99355.59;5067720;28;20399;-59
2023/03/30 09:32:14;;;;;;;5.68;1.55;;;;;;;16.99;57.96;99354.06;5062858;28;20052;-59
2023/03/30 09:34:46;;;;;;;8.23;2.08;;;;;;;17.51;56.18;99362.59;5059927;28;20053;-59
2023/03/30 09:37:17;;;;;;;5.60;1.98;;;;;;;20.36;49.55;99354.69;5065957;28;20478;-59
2023/03/30 09:39:46;;;;;;;5.57;2.03;;;;;;;23.65;41.42;99347.16;5065912;28;20056;-59
2023/03/30 09:42:27;;;;;;;6.03;2.00;;;;;;;25.48;37.42;99335.00;5062731;28;20064;-60
2023/03/30 09:44:59;;;;;;;4.22;1.50;;;;;;;27.09;34.57;99332.69;5059684;28;20057;-59
2023/03/30 09:47:29;;;;;;;5.53;1.90;;;;;;;27.27;32.85;99322.75;5069004;28;20052;-59
2023/03/30 09:49:58;;;;;;;4.70;1.60;;;;;;;28.64;30.57;99319.72;5058769;28;20045;-59
2023/03/30 09:52:28;;;;;;;6.22;1.80;;;;;;;30.37;28.54;99315.56;5067543;28;20079;-57
2023/03/30 09:54:57;;;;;;;6.15;2.00;;;;;;;31.75;26.88;99318.88;5060922;28;20053;-58
2023/03/30 09:57:27;;;;;;;5.30;1.90;;;;;;;32.35;25.71;99299.69;5070708;28;20053;-58
2023/03/30 09:59:56;;;;;;;4.43;1.63;;;;;;;31.12;26.61;99314.97;5070241;28;20068;-58
2023/03/30 10:02:26;;;;;;;5.72;2.08;;;;;;;28.72;29.79;99320.22;5064985;28;20051;-58
2023/03/30 10:05:02;;;;;;;5.38;2.15;;;;;;;26.28;33.45;99328.88;5062516;28;20056;-58
2023/03/30 10:07:33;;;;;;;5.60;1.90;;;;;;;23.72;44.47;99374.69;5074561;28;20044;-58
2023/03/30 10:10:13;;;;;;;9.75;3.08;;;;;;;20.33;64.47;99378.13;5066934;28;20398;-59
2023/03/30 10:12:41;;;;;;;6.25;2.50;;;;;;;18.94;61.14;99396.59;5066794;28;20059;-59
2023/03/30 10:15:18;;;;;;;4.40;2.40;;;;;;;17.91;63.58;99400.41;5070346;28;20489;-59
2023/03/30 10:17:55;;;;;;;4.63;1.65;;;;;;;17.54;61.99;99394.81;5066616;28;20044;-59
2023/03/30 10:20:29;;;;;;;6.90;2.90;;;;;;;16.80;64.04;99416.09;5070055;28;20540;-60
2023/03/30 10:23:02;;;;;;;6.45;1.73;;;;;;;16.12;62.52;99395.47;5068225;28;20051;-60
2023/03/30 10:25:33;;;;;;;7.43;1.88;;;;;;;15.69;63.30;99425.66;5061566;28;20059;-60
2023/03/30 10:28:15;;;;;;;7.03;1.77;;;;;;;15.50;62.25;99423.72;5071007;28;20470;-60
2023/03/30 10:30:50;;;;;;;4.95;1.60;;;;;;;15.18;63.70;99415.50;5064207;28;20055;-59
2023/03/30 10:33:18;;;;;;;10.20;1.95;;;;;;;14.95;64.41;99415.44;5071134;28;20063;-59
2023/03/30 10:35:50;;;;;;;3.97;1.40;;;;;;;14.86;63.15;99418.47;5063598;28;20056;-59
2023/03/30 10:38:18;;;;;;;6.18;1.60;;;;;;;14.78;63.22;99419.50;5075780;28;20059;-59
2023/03/30 10:40:47;;;;;;;7.45;1.65;;;;;;;14.66;62.85;99430.84;5074549;28;20048;-59
2023/03/30 10:43:20;;;;;;;8.60;1.88;;;;;;;14.55;63.24;99419.38;5075572;28;20052;-59
2023/03/30 10:45:49;;;;;;;6.60;1.80;;;;;;;14.41;63.19;99412.31;5076043;28;20056;-59
2023/03/30 10:48:38;;;;;;;5.80;1.98;;;;;;;14.40;62.67;99427.50;5075397;28;20052;-59
2023/03/30 10:51:16;;;;;;;5.50;1.52;;;;;;;14.86;62.37;99421.28;5072662;28;20064;-58
2023/03/30 10:53:50;;;;;;;6.10;2.03;;;;;;;15.31;60.82;99416.97;5075415;28;20409;-59
2023/03/30 10:56:32;;;;;;;4.85;1.70;;;;;;;16.24;57.92;99426.97;5075268;28;20048;-58
2023/03/30 10:59:17;;;;;;;5.65;1.60;;;;;;;16.24;57.96;99414.91;5074230;28;20052;-59
2023/03/30 11:01:59;;;;;;;8.27;2.22;;;;;;;16.24;58.89;99410.09;5075624;28;20071;-59
2023/03/30 11:04:32;;;;;;;4.72;1.67;;;;;;;16.46;58.43;99409.59;5075075;28;20048;-59
2023/03/30 11:07:05;;;;;;;8.88;2.28;;;;;;;17.01;55.95;99407.94;5073311;28;20406;-59
2023/03/30 11:09:36;;;;;;;4.63;1.80;;;;;;;18.58;51.70;99404.88;5075151;28;20053;-58
2023/03/30 11:12:07;;;;;;;8.77;2.25;;;;;;;19.83;49.04;99404.44;5074974;28;20083;-58
2023/03/30 11:14:46;;;;;;;5.18;1.80;;;;;;;21.83;43.95;99404.09;5075010;28;20056;-58
2023/03/30 11:17:22;;;;;;;6.03;1.92;;;;;;;23.77;39.21;99390.47;5071858;28;20052;-58
2023/03/30 11:19:56;;;;;;;4.20;1.73;;;;;;;25.96;35.26;99406.00;5074791;28;20044;-58
2023/03/30 11:22:33;;;;;;;5.45;1.80;;;;;;;26.46;34.70;99401.84;5072984;28;20052;-58
2023/03/30 11:25:04;;;;;;;4.57;1.70;;;;;;;29.28;30.70;99398.81;5074074;28;20052;-58
2023/03/30 11:27:40;;;;;;;4.97;2.03;;;;;;;31.31;27.94;99408.59;5073095;28;20048;-58
2023/03/30 11:30:16;;;;;;;6.50;1.98;;;;;;;31.75;25.96;99395.78;5074948;28;20055;-59
2023/03/30 11:32:52;;;;;;;6.13;2.08;;;;;;;31.56;27.36;99397.94;5074533;28;20063;-59
2023/03/30 11:35:30;;;;;;;7.93;2.17;;;;;;;31.98;26.29;99402.06;5072614;28;20059;-59
2023/03/30 11:38:02;;;;;;;9.05;2.40;;;;;;;33.30;25.33;99385.66;5074750;28;20055;-59
2023/03/30 11:40:38;;;;;;;4.28;2.00;;;;;;;30.95;27.52;99398.75;5061164;28;20060;-59
2023/03/30 11:43:10;;;;;;;4.70;1.98;;;;;;;31.77;26.38;99401.84;5054664;28;20052;-59
2023/03/30 11:45:48;;;;;;;5.00;1.90;;;;;;;31.10;25.20;99403.81;5054937;28;20056;-59
2023/03/30 11:49:00;;;;;;;5.77;1.70;;;;;;;30.04;26.14;99393.69;5060968;28;20501;-59
2023/03/30 11:51:45;;;;;;;7.25;2.03;;;;;;;32.05;24.64;99379.50;5033868;28;20501;-58
2023/03/30 11:54:33;;;;;;;5.85;2.10;;;;;;;33.51;21.90;99384.44;5074668;28;20049;-59